Terminal Aerodrome Forecast
Issued by NWS Louisville, KY

Home | Current Version | Previous Version | Text Only | Print | Product List | Glossary On
Versions: 1 2 3 4 5 6 7 8 9 10 11 12 13
884
FTUS43 KLMK 130521
TAFLEX
TAF
KLEX 130521Z 1306/1406 27006KT P6SM SKC
     FM131100 21005KT P6SM SCT250
     FM131500 20017G30KT P6SM BKN150
     FM140300 26015G25KT P6SM BKN050=

USA.gov is the U.S. government's official web portal to all federal, state and local government web resources and services.